Time;durP1;ratioP1;P1;durP2;ratioP2;P2;SDS_P1;SDS_P2;PMS_P1;PMS_P2;Temp;Humidity;BMP_temperature;BMP_pressure;BME280_temperature;BME280_humidity;BME280_pressure;Samples;Min_cycle;Max_cycle;Signal;HPM_P1;HPM_P2
2022/05/03 00:00:20;;;;;;;;;42.50;35.75;;;;;-143.93;100.00;62969.28;4992749;28;9005;-66
2022/05/03 00:03:25;;;;;;;;;53.25;38.00;;;;;-143.93;100.00;62969.28;4988378;28;8924;-67
2022/05/03 00:06:00;;;;;;;;;45.50;36.00;;;;;-143.93;100.00;62969.28;4993440;28;8914;-66
2022/05/03 00:08:52;;;;;;;;;44.50;36.25;;;;;-143.93;100.00;62969.28;5006090;28;9643;-66
2022/05/03 00:11:45;;;;;;;;;48.50;38.25;;;;;-143.93;100.00;62969.28;5007488;28;8904;-67
2022/05/03 00:14:26;;;;;;;;;46.00;35.25;;;;;-143.93;100.00;62969.28;5006122;28;8836;-66
2022/05/03 00:16:53;;;;;;;;;41.50;35.25;;;;;-143.93;100.00;62969.28;5011670;28;8874;-66
2022/05/03 00:19:18;;;;;;;;;49.25;35.50;;;;;-143.93;100.00;62969.28;5002127;28;8794;-66
2022/05/03 00:21:44;;;;;;;;;53.75;38.25;;;;;-143.93;100.00;62969.28;5002185;28;8848;-66
2022/05/03 00:24:09;;;;;;;;;49.00;35.25;;;;;-143.93;100.00;62969.28;5006557;28;8829;-66
2022/05/03 00:26:35;;;;;;;;;46.00;38.25;;;;;-143.93;100.00;62969.28;4992301;28;8836;-66
2022/05/03 00:29:01;;;;;;;;;50.00;38.50;;;;;-143.93;100.00;62969.28;5008525;28;8817;-67
2022/05/03 00:31:28;;;;;;;;;40.50;35.00;;;;;-143.93;100.00;62969.28;5003430;28;8821;-66
2022/05/03 00:33:55;;;;;;;;;39.75;32.50;;;;;-143.93;100.00;62969.28;5003482;28;8797;-66
2022/05/03 00:36:21;;;;;;;;;51.25;38.25;;;;;-143.93;100.00;62969.28;5003534;28;8930;-66
2022/05/03 00:38:46;;;;;;;;;47.25;38.25;;;;;-143.93;100.00;62969.28;5010117;28;8804;-67
2022/05/03 00:41:18;;;;;;;;;47.25;37.25;;;;;-143.93;100.00;62969.28;5008211;28;8821;-66
2022/05/03 00:43:57;;;;;;;;;39.50;35.50;;;;;-143.93;100.00;62969.28;5000927;28;8822;-66
2022/05/03 00:46:27;;;;;;;;;51.75;38.25;;;;;-143.93;100.00;62969.28;5010122;28;8796;-66
2022/05/03 00:49:25;;;;;;;;;47.50;35.00;;;;;-143.93;100.00;62969.28;5003185;28;8812;-66
2022/05/03 00:52:25;;;;;;;;;49.25;38.50;;;;;-143.93;100.00;62969.28;5003147;28;8797;-66
2022/05/03 00:55:21;;;;;;;;;48.50;36.75;;;;;-143.93;100.00;62969.28;5002776;28;8844;-67
2022/05/03 00:57:55;;;;;;;;;39.50;32.75;;;;;-143.93;100.00;62969.28;5003068;28;8798;-66
2022/05/03 01:00:24;;;;;;;;;47.50;38.50;;;;;-143.93;100.00;62969.28;5003215;28;8804;-67
2022/05/03 01:03:14;;;;;;;;;44.25;37.25;;;;;-143.93;100.00;62969.28;5006209;28;8906;-67
2022/05/03 01:05:54;;;;;;;;;48.50;35.50;;;;;-143.93;100.00;62969.28;4991688;28;8840;-67
2022/05/03 01:08:54;;;;;;;;;49.50;37.25;;;;;-143.93;100.00;62969.28;4994105;28;8906;-67
2022/05/03 01:11:37;;;;;;;;;46.75;36.00;;;;;-143.93;100.00;62969.28;5005558;28;8778;-67
2022/05/03 01:14:40;;;;;;;;;50.25;37.00;;;;;-143.93;100.00;62969.28;5008504;28;8801;-67
2022/05/03 01:17:24;;;;;;;;;44.00;37.50;;;;;-143.93;100.00;62969.28;4994434;28;8855;-67
2022/05/03 01:20:04;;;;;;;;;46.75;37.00;;;;;-143.93;100.00;62969.28;4996263;28;8788;-67
2022/05/03 01:23:14;;;;;;;;;45.25;35.50;;;;;-143.93;100.00;62969.28;5002738;28;8816;-67
2022/05/03 01:26:15;;;;;;;;;41.50;34.75;;;;;-143.93;100.00;62969.28;5005384;28;8806;-67
2022/05/03 01:29:22;;;;;;;;;45.00;34.25;;;;;-143.93;100.00;62969.28;4995279;27;8824;-67
2022/05/03 01:31:53;;;;;;;;;47.50;34.50;;;;;-143.93;100.00;62969.28;5004213;28;8860;-67
2022/05/03 01:34:19;;;;;;;;;44.00;35.75;;;;;-143.93;100.00;62969.28;5023492;28;8785;-67
2022/05/03 01:37:02;;;;;;;;;49.75;37.00;;;;;-143.93;100.00;62969.28;5002644;28;8839;-67
2022/05/03 01:40:04;;;;;;;;;49.50;37.25;;;;;-143.93;100.00;62969.28;5002721;28;8804;-67
2022/05/03 01:42:44;;;;;;;;;44.75;33.75;;;;;-143.93;100.00;62969.28;5002498;28;9614;-67
2022/05/03 01:45:11;;;;;;;;;48.25;36.25;;;;;-143.93;100.00;62969.28;5005802;28;8801;-67
2022/05/03 01:47:59;;;;;;;;;51.50;35.00;;;;;-143.93;100.00;62969.28;4991209;28;8789;-67
2022/05/03 01:51:00;;;;;;;;;47.00;36.50;;;;;-143.93;100.00;62969.28;5005614;28;8794;-66
2022/05/03 01:53:45;;;;;;;;;45.50;36.75;;;;;-143.93;100.00;62969.28;5005259;28;8890;-67
2022/05/03 01:56:29;;;;;;;;;47.25;37.00;;;;;-143.93;100.00;62969.28;5010554;28;8847;-67
2022/05/03 01:59:27;;;;;;;;;44.50;36.00;;;;;-143.93;100.00;62969.28;5004165;28;8793;-67
2022/05/03 02:01:59;;;;;;;;;47.00;35.00;;;;;-143.93;100.00;62969.28;5020015;28;8918;-67
2022/05/03 02:05:02;;;;;;;;;45.50;35.25;;;;;-143.93;100.00;62969.28;5020190;28;8797;-67
2022/05/03 02:07:49;;;;;;;;;43.75;34.75;;;;;-143.93;100.00;62969.28;5006853;28;8819;-67
2022/05/03 02:10:53;;;;;;;;;43.50;34.25;;;;;-143.93;100.00;62969.28;4994033;28;8796;-67
2022/05/03 02:14:43;;;;;;;;;47.50;34.75;;;;;-143.93;100.00;62969.28;5068183;28;8793;-67
2022/05/03 02:16:29;;;;;;;;;44.00;34.00;;;;;-143.93;100.00;62969.28;5059878;28;8795;-67
2022/05/03 02:19:12;;;;;;;;;50.50;35.75;;;;;-143.93;100.00;62969.28;5057286;28;8799;-66
2022/05/03 02:22:02;;;;;;;;;36.25;33.75;;;;;-143.93;100.00;62969.28;5057362;28;8805;-67
2022/05/03 02:24:55;;;;;;;;;51.00;37.75;;;;;-143.93;100.00;62969.28;5058214;28;8789;-66
2022/05/03 02:27:23;;;;;;;;;48.75;37.75;;;;;-143.93;100.00;62969.28;5070612;28;9584;-67
2022/05/03 02:29:50;;;;;;;;;52.25;35.50;;;;;-143.93;100.00;62969.28;5068259;28;8777;-67
2022/05/03 02:32:26;;;;;;;;;42.50;35.25;;;;;-143.93;100.00;62969.28;5068660;28;8898;-66
2022/05/03 02:35:04;;;;;;;;;50.50;37.50;;;;;-143.93;100.00;62969.28;5068403;28;9809;-67
2022/05/03 02:37:36;;;;;;;;;20.25;10.75;;;;;-143.93;100.00;62969.28;5068154;28;8800;-67
2022/05/03 02:40:08;;;;;;;;;44.25;35.50;;;;;-143.93;100.00;62969.28;5061943;28;8787;-67
2022/05/03 02:42:37;;;;;;;;;39.00;29.50;;;;;-143.93;100.00;62969.28;5056968;28;8921;-68
2022/05/03 02:45:04;;;;;;;;;46.75;35.25;;;;;-143.93;100.00;62969.28;5054681;28;8915;-67
2022/05/03 02:47:32;;;;;;;;;51.50;33.50;;;;;-143.93;100.00;62969.28;5052178;28;8783;-67
2022/05/03 02:50:05;;;;;;;;;39.50;35.50;;;;;-143.93;100.00;62969.28;5013199;28;8842;-67
2022/05/03 02:52:41;;;;;;;;;53.50;36.00;;;;;-143.93;100.00;62969.28;4993934;28;8870;-67
2022/05/03 02:55:20;;;;;;;;;46.00;33.50;;;;;-143.93;100.00;62969.28;4993572;28;8851;-67
2022/05/03 02:58:10;;;;;;;;;43.00;35.50;;;;;-143.93;100.00;62969.28;4995889;28;8797;-67
2022/05/03 03:04:01;;;;;;;;;36.75;30.00;;;;;-143.93;100.00;62969.28;4992212;28;8831;-67
2022/05/03 03:06:32;;;;;;;;;36.75;34.00;;;;;-143.93;100.00;62969.28;5001775;28;8820;-67
2022/05/03 03:08:58;;;;;;;;;42.25;33.50;;;;;-143.93;100.00;62969.28;5004453;28;8827;-67
2022/05/03 03:11:31;;;;;;;;;43.75;35.00;;;;;-143.93;100.00;62969.28;5004790;28;8810;-67
2022/05/03 03:14:10;;;;;;;;;38.50;33.75;;;;;-143.93;100.00;62969.28;4994804;28;8830;-67
2022/05/03 03:16:42;;;;;;;;;38.75;33.75;;;;;-143.93;100.00;62969.28;4993289;28;8823;-67
2022/05/03 03:19:18;;;;;;;;;36.75;33.25;;;;;-143.93;100.00;62969.28;5002753;28;8906;-67
2022/05/03 03:21:48;;;;;;;;;34.50;31.50;;;;;-143.93;100.00;62969.28;4993313;28;8796;-67
2022/05/03 03:24:16;;;;;;;;;36.75;31.00;;;;;-143.93;100.00;62969.28;4992661;28;8793;-67
2022/05/03 03:26:44;;;;;;;;;47.50;34.50;;;;;-143.93;100.00;62969.28;4999187;28;8876;-67
2022/05/03 03:29:11;;;;;;;;;45.25;33.25;;;;;-143.93;100.00;62969.28;5004465;28;8789;-67
2022/05/03 03:31:37;;;;;;;;;48.50;34.75;;;;;-143.93;100.00;62969.28;4994031;28;8796;-67
2022/05/03 03:34:04;;;;;;;;;50.50;36.50;;;;;-143.93;100.00;62969.28;5020317;27;8914;-67
2022/05/03 03:36:31;;;;;;;;;43.75;31.25;;;;;-143.93;100.00;62969.28;4996306;27;8851;-67
2022/05/03 03:38:57;;;;;;;;;51.00;35.25;;;;;-143.93;100.00;62969.28;5004250;28;8812;-67
2022/05/03 03:41:23;;;;;;;;;38.50;33.50;;;;;-143.93;100.00;62969.28;4990951;28;8878;-67
2022/05/03 03:43:49;;;;;;;;;50.50;34.50;;;;;-143.93;100.00;62969.28;4994692;28;8776;-67
2022/05/03 03:46:14;;;;;;;;;43.00;35.00;;;;;-143.93;100.00;62969.28;4994651;28;8934;-67
2022/05/03 03:48:40;;;;;;;;;44.00;33.50;;;;;-143.93;100.00;62969.28;4996078;28;8914;-66
2022/05/03 03:51:06;;;;;;;;;40.00;33.25;;;;;-143.93;100.00;62969.28;4994323;28;8814;-67
2022/05/03 03:53:32;;;;;;;;;44.50;36.00;;;;;-143.93;100.00;62969.28;4991766;28;8830;-67
2022/05/03 03:55:59;;;;;;;;;36.25;33.25;;;;;-143.93;100.00;62969.28;5000541;28;8850;-67
2022/05/03 03:58:25;;;;;;;;;44.00;33.25;;;;;-143.93;100.00;62969.28;5005118;28;8900;-67
2022/05/03 04:00:51;;;;;;;;;45.75;33.75;;;;;-143.93;100.00;62969.28;5002486;28;9260;-67
2022/05/03 04:03:16;;;;;;;;;48.00;34.00;;;;;-143.93;100.00;62969.28;5001495;28;8829;-67
2022/05/03 04:05:44;;;;;;;;;43.00;34.75;;;;;-143.93;100.00;62969.28;5071787;27;8798;-67
2022/05/03 04:08:09;;;;;;;;;47.75;36.50;;;;;-143.93;100.00;62969.28;5008784;28;8818;-67
2022/05/03 04:10:34;;;;;;;;;44.50;37.00;;;;;-143.93;100.00;62969.28;5003814;28;8817;-67
2022/05/03 04:12:59;;;;;;;;;38.25;36.00;;;;;-143.93;100.00;62969.28;5003789;28;8840;-67
2022/05/03 04:15:26;;;;;;;;;42.25;34.50;;;;;-143.93;100.00;62969.28;5018184;27;9697;-66
2022/05/03 04:17:53;;;;;;;;;40.75;35.25;;;;;-143.93;100.00;62969.28;4992230;28;8819;-67
2022/05/03 04:20:18;;;;;;;;;44.50;33.50;;;;;-143.93;100.00;62969.28;4993809;28;9575;-67
2022/05/03 04:22:45;;;;;;;;;48.75;36.25;;;;;-143.93;100.00;62969.28;5004814;28;8833;-67
2022/05/03 04:25:11;;;;;;;;;48.00;37.50;;;;;-143.93;100.00;62969.28;5003975;28;8821;-67
2022/05/03 04:27:36;;;;;;;;;37.25;31.50;;;;;-143.93;100.00;62969.28;5006417;28;8808;-67
2022/05/03 04:30:03;;;;;;;;;42.25;34.50;;;;;-143.93;100.00;62969.28;5006452;28;8824;-66
2022/05/03 04:32:29;;;;;;;;;37.50;33.00;;;;;-143.93;100.00;62969.28;4998132;28;8919;-66
2022/05/03 04:34:55;;;;;;;;;42.25;34.00;;;;;-143.93;100.00;62969.28;5054451;27;8795;-66
2022/05/03 04:37:20;;;;;;;;;39.50;33.75;;;;;-143.93;100.00;62969.28;5017881;28;8829;-66
2022/05/03 04:39:46;;;;;;;;;45.50;37.00;;;;;-143.93;100.00;62969.28;5003523;28;8813;-66
2022/05/03 04:42:11;;;;;;;;;53.50;36.75;;;;;-143.93;100.00;62969.28;5004383;28;8863;-66
2022/05/03 04:44:37;;;;;;;;;44.50;34.25;;;;;-143.93;100.00;62969.28;5006725;28;8911;-66
2022/05/03 04:47:03;;;;;;;;;38.75;33.00;;;;;-143.93;100.00;62969.28;5005364;28;8797;-66
2022/05/03 04:49:28;;;;;;;;;47.00;34.00;;;;;-143.93;100.00;62969.28;5003256;28;8820;-66
2022/05/03 04:51:54;;;;;;;;;40.25;32.75;;;;;-143.93;100.00;62969.28;5003349;28;8833;-66
2022/05/03 04:54:19;;;;;;;;;54.50;38.25;;;;;-143.93;100.00;62969.28;5003085;28;8847;-66
2022/05/03 04:56:52;;;;;;;;;48.50;35.50;;;;;-143.93;100.00;62969.28;5005537;28;8847;-66
2022/05/03 04:59:18;;;;;;;;;43.25;36.25;;;;;-143.93;100.00;62969.28;5004344;28;8959;-66
2022/05/03 05:01:44;;;;;;;;;49.75;38.75;;;;;-143.93;100.00;62969.28;4995361;28;8804;-66
2022/05/03 05:04:09;;;;;;;;;48.50;36.00;;;;;-143.93;100.00;62969.28;4995009;28;8894;-66
2022/05/03 05:06:34;;;;;;;;;41.00;36.00;;;;;-143.93;100.00;62969.28;4994843;28;8802;-65
2022/05/03 05:09:00;;;;;;;;;47.00;37.00;;;;;-143.93;100.00;62969.28;4992677;28;8946;-67
2022/05/03 05:11:25;;;;;;;;;50.00;37.00;;;;;-143.93;100.00;62969.28;4992625;28;8820;-65
2022/05/03 05:13:51;;;;;;;;;47.25;36.25;;;;;-143.93;100.00;62969.28;4995120;28;8823;-65
2022/05/03 05:16:17;;;;;;;;;45.25;37.00;;;;;-143.93;100.00;62969.28;4994780;28;8934;-65
2022/05/03 05:18:43;;;;;;;;;48.50;36.00;;;;;-143.93;100.00;62969.28;4994732;28;8807;-66
2022/05/03 05:21:10;;;;;;;;;51.00;37.25;;;;;-143.93;100.00;62969.28;4993914;28;8922;-66
2022/05/03 05:23:35;;;;;;;;;47.00;35.00;;;;;-143.93;100.00;62969.28;4991578;28;8835;-66
2022/05/03 05:26:02;;;;;;;;;45.00;35.75;;;;;-143.93;100.00;62969.28;5003156;28;8880;-66
2022/05/03 05:28:27;;;;;;;;;48.75;36.50;;;;;-143.93;100.00;62969.28;5002900;28;8798;-66
2022/05/03 05:30:53;;;;;;;;;48.75;36.00;;;;;-143.93;100.00;62969.28;5002802;28;8944;-66
2022/05/03 05:33:20;;;;;;;;;49.50;38.50;;;;;-143.93;100.00;62969.28;5002791;28;8839;-66
2022/05/03 05:35:46;;;;;;;;;44.25;36.25;;;;;-143.93;100.00;62969.28;5007547;28;8780;-66
2022/05/03 05:38:14;;;;;;;;;47.75;35.00;;;;;-143.93;100.00;62969.28;5004973;28;8893;-65
2022/05/03 05:40:40;;;;;;;;;47.25;36.00;;;;;-143.93;100.00;62969.28;4994607;28;8817;-66
2022/05/03 05:43:05;;;;;;;;;47.50;35.00;;;;;-143.93;100.00;62969.28;4994357;28;8836;-66
2022/05/03 05:45:30;;;;;;;;;48.50;38.00;;;;;-143.93;100.00;62969.28;4994430;28;8829;-66
2022/05/03 05:47:57;;;;;;;;;41.00;32.50;;;;;-143.93;100.00;62969.28;4991961;28;8823;-66
2022/05/03 05:50:23;;;;;;;;;48.00;36.75;;;;;-143.93;100.00;62969.28;4992290;28;8781;-66
2022/05/03 05:55:33;;;;;;;;;45.00;32.25;;;;;-143.93;100.00;62969.28;5001454;28;8799;-66
2022/05/03 05:57:58;;;;;;;;;44.50;36.50;;;;;-143.93;100.00;62969.28;5005269;28;8820;-66
2022/05/03 06:00:23;;;;;;;;;35.75;32.75;;;;;-143.93;100.00;62969.28;5003615;28;8901;-66
2022/05/03 06:02:49;;;;;;;;;46.75;34.75;;;;;-143.93;100.00;62969.28;5000318;28;8855;-66
2022/05/03 06:05:14;;;;;;;;;40.75;35.25;;;;;-143.93;100.00;62969.28;5015987;28;8801;-66
2022/05/03 06:07:40;;;;;;;;;41.50;36.00;;;;;-143.93;100.00;62969.28;5001950;28;8802;-67
2022/05/03 06:10:06;;;;;;;;;44.75;35.00;;;;;-143.93;100.00;62969.28;5001914;28;8843;-66
2022/05/03 06:12:31;;;;;;;;;43.50;35.75;;;;;-143.93;100.00;62969.28;5002648;28;8909;-66
2022/05/03 06:14:57;;;;;;;;;50.75;38.75;;;;;-143.93;100.00;62969.28;5005370;28;8815;-66
2022/05/03 06:17:22;;;;;;;;;47.50;36.00;;;;;-143.93;100.00;62969.28;4991771;28;8815;-66
2022/05/03 06:19:48;;;;;;;;;52.50;36.50;;;;;-143.93;100.00;62969.28;5003715;28;8828;-67
2022/05/03 06:22:13;;;;;;;;;49.50;36.00;;;;;-143.93;100.00;62969.28;5002059;28;8925;-67
2022/05/03 06:24:39;;;;;;;;;44.50;37.50;;;;;-143.93;100.00;62969.28;5007919;28;8801;-67
2022/05/03 06:27:05;;;;;;;;;45.50;35.50;;;;;-143.93;100.00;62969.28;5014467;28;9918;-66
2022/05/03 06:29:34;;;;;;;;;46.50;35.75;;;;;-143.93;100.00;62969.28;4990170;28;8818;-67
2022/05/03 06:32:00;;;;;;;;;48.50;37.75;;;;;-143.93;100.00;62969.28;5008695;28;8809;-66
2022/05/03 06:34:26;;;;;;;;;45.75;35.00;;;;;-143.93;100.00;62969.28;5001451;28;8894;-67
2022/05/03 06:36:51;;;;;;;;;49.50;36.75;;;;;-143.93;100.00;62969.28;5005103;28;8835;-66
2022/05/03 06:39:17;;;;;;;;;46.50;36.00;;;;;-143.93;100.00;62969.28;5009500;28;8845;-67
2022/05/03 06:41:42;;;;;;;;;48.75;38.00;;;;;-143.93;100.00;62969.28;5005306;28;8828;-67
2022/05/03 06:44:08;;;;;;;;;49.25;36.25;;;;;-143.93;100.00;62969.28;4989960;28;8804;-67
2022/05/03 06:46:33;;;;;;;;;46.50;32.00;;;;;-143.93;100.00;62969.28;4994185;28;8846;-67
2022/05/03 06:48:58;;;;;;;;;42.25;35.50;;;;;-143.93;100.00;62969.28;4993819;28;8824;-67
2022/05/03 06:51:23;;;;;;;;;42.25;34.50;;;;;-143.93;100.00;62969.28;4993722;28;10417;-67
2022/05/03 06:53:49;;;;;;;;;45.75;36.50;;;;;-143.93;100.00;62969.28;4990450;28;8845;-67
2022/05/03 06:56:14;;;;;;;;;49.50;36.00;;;;;-143.93;100.00;62969.28;4990774;28;8831;-67
2022/05/03 06:58:40;;;;;;;;;39.00;32.75;;;;;-143.93;100.00;62969.28;5000694;28;8809;-67
2022/05/03 07:01:13;;;;;;;;;50.75;38.00;;;;;-143.93;100.00;62969.28;5001528;28;8831;-67
2022/05/03 07:03:40;;;;;;;;;54.50;39.75;;;;;-143.93;100.00;62969.28;5001769;28;8801;-66
2022/05/03 07:06:05;;;;;;;;;40.25;34.00;;;;;-143.93;100.00;62969.28;5005802;27;8811;-67
2022/05/03 07:08:32;;;;;;;;;53.75;39.75;;;;;-143.93;100.00;62969.28;5006018;28;8958;-67
2022/05/03 07:10:57;;;;;;;;;45.00;35.50;;;;;-143.93;100.00;62969.28;5003391;28;8809;-67
2022/05/03 07:13:26;;;;;;;;;46.50;37.25;;;;;-143.93;100.00;62969.28;4993563;28;8835;-67
2022/05/03 07:15:52;;;;;;;;;39.50;33.00;;;;;-143.93;100.00;62969.28;5025725;28;8877;-67
2022/05/03 07:23:47;;;;;;;;;50.25;37.75;;;;;-143.93;100.00;62969.28;4957436;28;8842;-67
2022/05/03 07:26:12;;;;;;;;;48.25;37.50;;;;;-143.93;100.00;62969.28;4966442;28;9017;-67
2022/05/03 07:28:38;;;;;;;;;48.75;37.00;;;;;-143.93;100.00;62969.28;4964319;28;9617;-67
2022/05/03 07:31:04;;;;;;;;;43.75;34.00;;;;;-143.93;100.00;62969.28;4959259;28;8862;-67
2022/05/03 07:33:29;;;;;;;;;47.25;35.50;;;;;-143.93;100.00;62969.28;4963673;28;8840;-67
2022/05/03 07:35:54;;;;;;;;;44.25;36.25;;;;;-143.93;100.00;62969.28;4964566;28;8831;-68
2022/05/03 07:38:20;;;;;;;;;47.00;35.50;;;;;-143.93;100.00;62969.28;4978687;28;8816;-67
2022/05/03 07:40:45;;;;;;;;;50.00;36.50;;;;;-143.93;100.00;62969.28;4963460;28;8832;-67
2022/05/03 07:43:10;;;;;;;;;44.00;34.50;;;;;-143.93;100.00;62969.28;4974250;28;8859;-67
2022/05/03 07:45:36;;;;;;;;;39.75;33.75;;;;;-143.93;100.00;62969.28;4989796;28;12978;-67
2022/05/03 07:48:01;;;;;;;;;47.25;35.75;;;;;-143.93;100.00;62969.28;4963610;28;8867;-67
2022/05/03 07:50:27;;;;;;;;;47.00;37.50;;;;;-143.93;100.00;62969.28;4964037;28;8950;-66
2022/05/03 07:52:52;;;;;;;;;43.50;35.50;;;;;-143.93;100.00;62969.28;4965680;28;8867;-67
2022/05/03 07:55:17;;;;;;;;;45.00;35.50;;;;;-143.93;100.00;62969.28;4963791;28;8827;-67
2022/05/03 07:57:43;;;;;;;;;42.75;32.50;;;;;-143.93;100.00;62969.28;4963928;28;8836;-67
2022/05/03 08:00:09;;;;;;;;;47.25;37.00;;;;;-143.93;100.00;62969.28;4968770;28;9590;-67
2022/05/03 08:02:34;;;;;;;;;42.25;33.25;;;;;-143.93;100.00;62969.28;5004435;28;8903;-67
2022/05/03 08:05:00;;;;;;;;;45.25;36.00;;;;;-143.93;100.00;62969.28;5002810;28;8805;-67
2022/05/03 08:07:25;;;;;;;;;45.25;35.75;;;;;-143.93;100.00;62969.28;5018368;27;8817;-67
2022/05/03 08:09:51;;;;;;;;;39.25;34.75;;;;;-143.93;100.00;62969.28;5028466;28;8829;-67
2022/05/03 08:12:16;;;;;;;;;33.50;29.75;;;;;-143.93;100.00;62969.28;5013944;28;8932;-67
2022/05/03 08:14:42;;;;;;;;;42.50;35.50;;;;;-143.93;100.00;62969.28;5024729;28;9617;-67
2022/05/03 08:17:08;;;;;;;;;40.00;34.50;;;;;-143.93;100.00;62969.28;4998775;28;8820;-67
2022/05/03 08:19:34;;;;;;;;;37.50;32.50;;;;;-143.93;100.00;62969.28;4991790;28;8831;-67
2022/05/03 08:22:00;;;;;;;;;41.75;33.00;;;;;-143.93;100.00;62969.28;5004698;28;8827;-67
2022/05/03 08:24:26;;;;;;;;;46.25;35.25;;;;;-143.93;100.00;62969.28;4991539;28;8825;-67
2022/05/03 08:26:52;;;;;;;;;49.75;37.50;;;;;-143.93;100.00;62969.28;4988281;28;9844;-67
2022/05/03 08:29:18;;;;;;;;;39.50;31.50;;;;;-143.93;100.00;62969.28;4993992;28;8804;-67
2022/05/03 08:31:43;;;;;;;;;38.00;33.00;;;;;-143.93;100.00;62969.28;5003208;28;8963;-67
2022/05/03 08:34:10;;;;;;;;;39.00;32.25;;;;;-143.93;100.00;62969.28;5002988;28;8812;-67
2022/05/03 08:36:35;;;;;;;;;38.50;31.50;;;;;-143.93;100.00;62969.28;5007452;28;8816;-67
2022/05/03 08:42:06;;;;;;;;;36.50;31.50;;;;;-143.93;100.00;62969.28;4989210;28;8804;-67
2022/05/03 08:44:33;;;;;;;;;36.50;31.75;;;;;-143.93;100.00;62969.28;5007708;28;8844;-67
2022/05/03 08:47:00;;;;;;;;;35.75;32.25;;;;;-143.93;100.00;62969.28;5014014;28;8809;-67
2022/05/03 08:49:36;;;;;;;;;38.25;31.00;;;;;-143.93;100.00;62969.28;5002429;28;8794;-67
2022/05/03 08:52:03;;;;;;;;;34.75;30.50;;;;;-143.93;100.00;62969.28;5003038;28;8797;-67
2022/05/03 08:54:29;;;;;;;;;37.50;30.50;;;;;-143.93;100.00;62969.28;5004793;28;8832;-65
2022/05/03 08:56:55;;;;;;;;;32.00;27.75;;;;;-143.93;100.00;62969.28;4991871;28;9580;-67
2022/05/03 08:59:21;;;;;;;;;37.00;30.75;;;;;-143.93;100.00;62969.28;4993016;28;8795;-67
2022/05/03 09:01:46;;;;;;;;;31.50;26.00;;;;;-143.93;100.00;62969.28;4996299;28;8912;-67
2022/05/03 09:04:11;;;;;;;;;38.00;30.25;;;;;-143.93;100.00;62969.28;4998653;28;8938;-67
2022/05/03 09:06:48;;;;;;;;;28.00;26.75;;;;;-143.93;100.00;62969.28;4994662;28;18760;-65
2022/05/03 09:09:18;;;;;;;;;30.25;27.50;;;;;-143.93;100.00;62969.28;4994265;28;8955;-65
2022/05/03 09:11:47;;;;;;;;;31.75;28.50;;;;;-143.93;100.00;62969.28;5009896;28;8788;-65
2022/05/03 09:14:34;;;;;;;;;229.60;193.40;;;;;-143.93;100.00;62969.28;5003358;28;8793;-66
2022/05/03 09:17:02;;;;;;;;;29.00;24.25;;;;;-143.93;100.00;62969.28;5042123;27;8840;-66
2022/05/03 09:19:27;;;;;;;;;23.50;21.25;;;;;-143.93;100.00;62969.28;4998317;28;8819;-66
2022/05/03 09:25:06;;;;;;;;;28.00;24.50;;;;;-143.93;100.00;62969.28;5001619;28;8746;-66
2022/05/03 09:27:32;;;;;;;;;23.75;22.25;;;;;-143.93;100.00;62969.28;4995730;28;8886;-65
2022/05/03 09:30:09;;;;;;;;;25.50;25.00;;;;;-143.93;100.00;62969.28;4999360;28;8835;-66
2022/05/03 09:32:45;;;;;;;;;28.25;24.25;;;;;-143.93;100.00;62969.28;4991422;28;8852;-67
2022/05/03 09:35:31;;;;;;;;;22.00;18.75;;;;;-143.93;100.00;62969.28;5004132;28;8801;-66
2022/05/03 09:37:56;;;;;;;;;24.50;22.25;;;;;-143.93;100.00;62969.28;5004595;28;8929;-67
2022/05/03 09:40:22;;;;;;;;;20.25;19.75;;;;;-143.93;100.00;62969.28;4995711;28;8918;-66
2022/05/03 09:42:55;;;;;;;;;27.50;24.00;;;;;-143.93;100.00;62969.28;4995461;28;8872;-67
2022/05/03 09:45:25;;;;;;;;;22.75;17.75;;;;;-143.93;100.00;62969.28;5001469;28;8827;-66
2022/05/03 09:47:56;;;;;;;;;21.75;20.50;;;;;-143.93;100.00;62969.28;5004832;28;8833;-66
2022/05/03 09:50:33;;;;;;;;;22.00;20.75;;;;;-143.93;100.00;62969.28;5004740;28;8836;-66
2022/05/03 09:53:12;;;;;;;;;24.50;23.25;;;;;-143.93;100.00;62969.28;4996350;28;8813;-66
2022/05/03 09:55:39;;;;;;;;;27.75;22.00;;;;;-143.93;100.00;62969.28;5001750;28;9607;-66
2022/05/03 09:58:07;;;;;;;;;24.50;22.25;;;;;-143.93;100.00;62969.28;5002160;27;8825;-67
2022/05/03 10:00:33;;;;;;;;;28.75;24.00;;;;;-143.93;100.00;62969.28;4994259;27;8898;-66
2022/05/03 10:03:01;;;;;;;;;23.75;21.25;;;;;-143.93;100.00;62969.28;5003534;28;8829;-67
2022/05/03 10:05:27;;;;;;;;;24.75;23.75;;;;;-143.93;100.00;62969.28;4999185;28;8813;-67
2022/05/03 10:07:53;;;;;;;;;23.00;23.00;;;;;-143.93;100.00;62969.28;4991824;28;8816;-67
2022/05/03 10:10:20;;;;;;;;;28.50;23.75;;;;;-143.93;100.00;62969.28;5011361;28;8892;-67
2022/05/03 10:12:47;;;;;;;;;23.25;22.25;;;;;-143.93;100.00;62969.28;5041057;27;8797;-67
2022/05/03 10:20:35;;;;;;;;;29.00;22.75;;;;;-143.93;100.00;62969.28;5005066;28;8841;-66
2022/05/03 10:20:46;;;;;;;;;23.50;21.00;;;;;-143.93;100.00;62969.28;5006767;28;8911;-67
2022/05/03 10:23:21;;;;;;;;;25.75;23.25;;;;;-143.93;100.00;62969.28;5004456;28;8851;-66
2022/05/03 10:25:49;;;;;;;;;24.50;20.50;;;;;-143.93;100.00;62969.28;5009300;28;8804;-67
2022/05/03 10:28:15;;;;;;;;;21.75;20.75;;;;;-143.93;100.00;62969.28;4998827;28;8789;-67
2022/05/03 10:31:04;;;;;;;;;23.75;21.00;;;;;-143.93;100.00;62969.28;5001848;28;8839;-67
2022/05/03 10:33:30;;;;;;;;;28.00;23.75;;;;;-143.93;100.00;62969.28;5000405;28;8822;-66
2022/05/03 10:35:56;;;;;;;;;23.33;21.00;;;;;-143.93;100.00;62969.28;5004870;28;8846;-67
2022/05/03 10:38:39;;;;;;;;;27.00;25.50;;;;;-143.93;100.00;62969.28;4991896;28;10798;-66
2022/05/03 10:41:05;;;;;;;;;30.50;22.75;;;;;-143.93;100.00;62969.28;5035691;28;8841;-66
2022/05/03 10:43:33;;;;;;;;;24.00;19.75;;;;;-143.93;100.00;62969.28;5008818;27;8817;-66
2022/05/03 10:46:10;;;;;;;;;24.50;21.75;;;;;-143.93;100.00;62969.28;5083643;28;9598;-66
2022/05/03 10:48:37;;;;;;;;;23.50;22.00;;;;;-143.93;100.00;62969.28;4993824;28;8847;-65
2022/05/03 10:51:04;;;;;;;;;19.50;17.75;;;;;-143.93;100.00;62969.28;4990772;28;8907;-66
2022/05/03 10:53:37;;;;;;;;;22.00;18.50;;;;;-143.93;100.00;62969.28;5004399;28;8814;-66
2022/05/03 10:56:07;;;;;;;;;19.75;19.75;;;;;-143.93;100.00;62969.28;5006781;28;8955;-66
2022/05/03 10:58:36;;;;;;;;;20.25;18.25;;;;;-143.93;100.00;62969.28;4993445;28;8931;-66
2022/05/03 11:01:23;;;;;;;;;22.50;21.00;;;;;-143.93;100.00;62969.28;4996757;28;8828;-66
2022/05/03 11:03:49;;;;;;;;;29.00;22.75;;;;;-143.93;100.00;62969.28;5001492;28;8843;-66
2022/05/03 11:06:25;;;;;;;;;25.50;23.00;;;;;-143.93;100.00;62969.28;5002610;28;8819;-66
2022/05/03 11:11:39;;;;;;;;;23.50;22.25;;;;;-143.93;100.00;62969.28;5004277;28;8863;-67
2022/05/03 11:14:12;;;;;;;;;19.00;18.00;;;;;-143.93;100.00;62969.28;5007138;28;8801;-66
2022/05/03 11:16:38;;;;;;;;;25.75;21.50;;;;;-143.93;100.00;62969.28;5001489;27;8833;-66
2022/05/03 11:19:12;;;;;;;;;22.25;18.50;;;;;-143.93;100.00;62969.28;5001667;27;9568;-66
2022/05/03 11:21:39;;;;;;;;;25.75;24.25;;;;;-143.93;100.00;62969.28;5085994;27;8871;-66
2022/05/03 11:24:05;;;;;;;;;23.50;22.75;;;;;-143.93;100.00;62969.28;5005049;28;8808;-67
2022/05/03 11:26:31;;;;;;;;;25.50;22.00;;;;;-143.93;100.00;62969.28;4990992;28;8923;-66
2022/05/03 11:28:58;;;;;;;;;19.25;19.25;;;;;-143.93;100.00;62969.28;5004493;28;8819;-66
2022/05/03 11:31:26;;;;;;;;;23.00;18.75;;;;;-143.93;100.00;62969.28;4994795;28;8808;-66
2022/05/03 11:33:52;;;;;;;;;25.50;22.00;;;;;-143.93;100.00;62969.28;4994667;28;8815;-66
2022/05/03 11:36:19;;;;;;;;;25.25;20.75;;;;;-143.93;100.00;62969.28;5010548;28;8836;-66
2022/05/03 11:38:47;;;;;;;;;21.75;19.50;;;;;-143.93;100.00;62969.28;4990157;28;8804;-66
2022/05/03 11:41:14;;;;;;;;;26.25;21.00;;;;;-143.93;100.00;62969.28;5003581;28;8790;-66